Airport ID:KJTC
Update Time (UTC):30/01/2023 15:03
Wind Speed (Knots):4
Wind Direction (Magnetic):300
Temperature (°C):-5
Dew Point (°C):-12
Humidity (%):60
Altimeter (inHg):29.97
Density Altitude (Feet):
Visibility:10+
Clouds (Hundreds of feet):CLR
Present Weather:
METAR:METAR KJTC 301500Z AUTO 26004KT 10SM CLR M05/M12 A2997 RMK AO2

The data displayed is for advisory purposes only and is not to be used for flight planning or operations.